URMM 082230Z 09006MPS 5000 BR OVC013 M01/M02 Q1026 R12/190160 TEMPO 0300 FZFG BKN002 RMK MT OBSC QFE741/0989
QNH:(hPa/inHg/mmHg)1026 / 30.3 / 770
QFE:(hPa/inHg/mmHg)987 / 29.15 / 740
Temperature-1
Dew Point-2
Visibility0300
WeatherMist;Freezing Fog
Cloud CoverOVC (1300);
BKN (200);
Transition Altitude7000 ft.
Transition LevelFL80
SQUAWK